sensor_id;sensor_type;location;lat;lon;timestamp;temperature;humidity
64111;DHT22;50401;48.188;11.566;2023-04-25T00:01:36;9.68;70.99
64111;DHT22;50401;48.188;11.566;2023-04-25T00:04:02;9.75;70.73
64111;DHT22;50401;48.188;11.566;2023-04-25T00:06:28;9.79;70.57
64111;DHT22;50401;48.188;11.566;2023-04-25T00:08:55;9.82;70.46
64111;DHT22;50401;48.188;11.566;2023-04-25T00:11:21;9.67;70.78
64111;DHT22;50401;48.188;11.566;2023-04-25T00:13:47;9.75;70.62
64111;DHT22;50401;48.188;11.566;2023-04-25T00:16:13;9.77;70.75
64111;DHT22;50401;48.188;11.566;2023-04-25T00:18:41;9.86;70.29
64111;DHT22;50401;48.188;11.566;2023-04-25T00:21:07;9.75;70.39
64111;DHT22;50401;48.188;11.566;2023-04-25T00:23:32;9.81;70.34
64111;DHT22;50401;48.188;11.566;2023-04-25T00:25:57;9.81;70.31
64111;DHT22;50401;48.188;11.566;2023-04-25T00:28:23;9.75;70.25
64111;DHT22;50401;48.188;11.566;2023-04-25T00:30:48;9.68;70.59
64111;DHT22;50401;48.188;11.566;2023-04-25T00:33:13;9.79;70.65
64111;DHT22;50401;48.188;11.566;2023-04-25T00:35:39;9.77;70.53
64111;DHT22;50401;48.188;11.566;2023-04-25T00:38:04;9.82;70.42
64111;DHT22;50401;48.188;11.566;2023-04-25T00:40:30;9.84;70.14
64111;DHT22;50401;48.188;11.566;2023-04-25T00:42:55;9.84;69.92
64111;DHT22;50401;48.188;11.566;2023-04-25T00:45:21;9.78;70.18
64111;DHT22;50401;48.188;11.566;2023-04-25T00:47:46;9.78;70.14
64111;DHT22;50401;48.188;11.566;2023-04-25T00:50:13;9.81;70.28
64111;DHT22;50401;48.188;11.566;2023-04-25T00:52:40;9.77;70.22
64111;DHT22;50401;48.188;11.566;2023-04-25T00:55:07;9.74;70.34
64111;DHT22;50401;48.188;11.566;2023-04-25T00:57:33;9.77;70.39
64111;DHT22;50401;48.188;11.566;2023-04-25T00:59:58;9.68;70.46
64111;DHT22;50401;48.188;11.566;2023-04-25T01:02:25;9.65;70.60
64111;DHT22;50401;48.188;11.566;2023-04-25T01:04:51;9.65;70.69
64111;DHT22;50401;48.188;11.566;2023-04-25T01:07:16;9.70;70.77
64111;DHT22;50401;48.188;11.566;2023-04-25T01:09:42;9.65;70.74
64111;DHT22;50401;48.188;11.566;2023-04-25T01:12:07;9.71;70.58
64111;DHT22;50401;48.188;11.566;2023-04-25T01:14:33;9.68;70.73
64111;DHT22;50401;48.188;11.566;2023-04-25T01:16:58;9.65;70.71
64111;DHT22;50401;48.188;11.566;2023-04-25T01:19:24;9.57;70.84
64111;DHT22;50401;48.188;11.566;2023-04-25T01:21:50;9.39;71.14
64111;DHT22;50401;48.188;11.566;2023-04-25T01:24:15;9.39;71.45
64111;DHT22;50401;48.188;11.566;2023-04-25T01:26:41;9.40;71.32
64111;DHT22;50401;48.188;11.566;2023-04-25T01:29:10;9.39;71.35
64111;DHT22;50401;48.188;11.566;2023-04-25T01:31:36;9.36;71.41
64111;DHT22;50401;48.188;11.566;2023-04-25T01:34:01;9.30;71.54
64111;DHT22;50401;48.188;11.566;2023-04-25T01:36:27;9.22;71.70
64111;DHT22;50401;48.188;11.566;2023-04-25T01:38:53;9.16;71.67
64111;DHT22;50401;48.188;11.566;2023-04-25T01:41:18;9.16;71.90
64111;DHT22;50401;48.188;11.566;2023-04-25T01:43:44;9.22;71.72
64111;DHT22;50401;48.188;11.566;2023-04-25T01:46:11;9.02;72.16
64111;DHT22;50401;48.188;11.566;2023-04-25T01:48:36;9.11;72.14
64111;DHT22;50401;48.188;11.566;2023-04-25T01:51:02;9.15;71.96
64111;DHT22;50401;48.188;11.566;2023-04-25T01:53:28;9.16;72.03
64111;DHT22;50401;48.188;11.566;2023-04-25T01:55:53;8.99;72.14
64111;DHT22;50401;48.188;11.566;2023-04-25T01:58:18;8.95;72.22
64111;DHT22;50401;48.188;11.566;2023-04-25T02:00:44;8.97;72.30
64111;DHT22;50401;48.188;11.566;2023-04-25T02:03:09;8.98;72.26
64111;DHT22;50401;48.188;11.566;2023-04-25T02:05:36;8.97;72.36
64111;DHT22;50401;48.188;11.566;2023-04-25T02:08:03;8.85;72.34
64111;DHT22;50401;48.188;11.566;2023-04-25T02:10:28;8.75;72.46
64111;DHT22;50401;48.188;11.566;2023-04-25T02:12:54;8.82;72.21
64111;DHT22;50401;48.188;11.566;2023-04-25T02:15:19;8.88;72.14
64111;DHT22;50401;48.188;11.566;2023-04-25T02:17:44;8.91;71.69
64111;DHT22;50401;48.188;11.566;2023-04-25T02:20:11;8.88;71.62
64111;DHT22;50401;48.188;11.566;2023-04-25T02:22:36;8.82;71.81
64111;DHT22;50401;48.188;11.566;2023-04-25T02:25:02;8.80;71.87
64111;DHT22;50401;48.188;11.566;2023-04-25T02:27:30;8.91;71.49
64111;DHT22;50401;48.188;11.566;2023-04-25T02:29:56;8.89;71.14
64111;DHT22;50401;48.188;11.566;2023-04-25T02:32:21;8.89;71.02
64111;DHT22;50401;48.188;11.566;2023-04-25T02:34:46;9.01;70.92
64111;DHT22;50401;48.188;11.566;2023-04-25T02:37:13;8.82;71.09
64111;DHT22;50401;48.188;11.566;2023-04-25T02:39:38;8.98;70.95
64111;DHT22;50401;48.188;11.566;2023-04-25T02:42:04;8.99;70.64
64111;DHT22;50401;48.188;11.566;2023-04-25T02:44:29;8.92;70.53
64111;DHT22;50401;48.188;11.566;2023-04-25T02:46:54;8.98;70.48
64111;DHT22;50401;48.188;11.566;2023-04-25T02:49:20;9.11;70.25
64111;DHT22;50401;48.188;11.566;2023-04-25T02:51:45;9.01;69.98
64111;DHT22;50401;48.188;11.566;2023-04-25T02:54:11;9.13;69.99
64111;DHT22;50401;48.188;11.566;2023-04-25T02:56:36;9.13;69.70
64111;DHT22;50401;48.188;11.566;2023-04-25T02:59:01;9.18;69.82
64111;DHT22;50401;48.188;11.566;2023-04-25T03:01:27;9.09;69.68
64111;DHT22;50401;48.188;11.566;2023-04-25T03:03:52;9.01;69.77
64111;DHT22;50401;48.188;11.566;2023-04-25T03:06:17;8.88;70.02
64111;DHT22;50401;48.188;11.566;2023-04-25T03:08:43;8.91;70.11
64111;DHT22;50401;48.188;11.566;2023-04-25T03:11:08;8.98;70.11
64111;DHT22;50401;48.188;11.566;2023-04-25T03:13:34;9.13;70.13
64111;DHT22;50401;48.188;11.566;2023-04-25T03:16:00;9.26;70.87
64111;DHT22;50401;48.188;11.566;2023-04-25T03:18:25;9.34;71.17
64111;DHT22;50401;48.188;11.566;2023-04-25T03:20:51;9.39;71.40
64111;DHT22;50401;48.188;11.566;2023-04-25T03:23:16;9.37;72.17
64111;DHT22;50401;48.188;11.566;2023-04-25T03:25:42;9.39;72.01
64111;DHT22;50401;48.188;11.566;2023-04-25T03:28:07;9.26;71.99
64111;DHT22;50401;48.188;11.566;2023-04-25T03:30:32;9.26;72.41
64111;DHT22;50401;48.188;11.566;2023-04-25T03:32:58;9.26;72.20
64111;DHT22;50401;48.188;11.566;2023-04-25T03:35:23;9.30;71.47
64111;DHT22;50401;48.188;11.566;2023-04-25T03:37:48;9.16;72.40
64111;DHT22;50401;48.188;11.566;2023-04-25T03:40:14;9.20;71.48
64111;DHT22;50401;48.188;11.566;2023-04-25T03:42:39;9.11;71.55
64111;DHT22;50401;48.188;11.566;2023-04-25T03:45:05;9.01;71.77
64111;DHT22;50401;48.188;11.566;2023-04-25T03:47:31;9.01;72.01
64111;DHT22;50401;48.188;11.566;2023-04-25T03:49:56;8.82;71.92
64111;DHT22;50401;48.188;11.566;2023-04-25T03:52:21;8.50;72.65
64111;DHT22;50401;48.188;11.566;2023-04-25T03:54:47;8.54;72.53
64111;DHT22;50401;48.188;11.566;2023-04-25T03:57:12;8.54;72.78
64111;DHT22;50401;48.188;11.566;2023-04-25T03:59:38;8.37;72.95
64111;DHT22;50401;48.188;11.566;2023-04-25T04:02:03;8.24;73.42
64111;DHT22;50401;48.188;11.566;2023-04-25T04:04:29;8.40;73.64
64111;DHT22;50401;48.188;11.566;2023-04-25T04:06:55;8.32;73.71
64111;DHT22;50401;48.188;11.566;2023-04-25T04:09:20;8.43;73.58
64111;DHT22;50401;48.188;11.566;2023-04-25T04:11:46;8.50;73.28
64111;DHT22;50401;48.188;11.566;2023-04-25T04:14:11;8.36;73.67
64111;DHT22;50401;48.188;11.566;2023-04-25T04:16:36;8.47;73.26
64111;DHT22;50401;48.188;11.566;2023-04-25T04:19:02;8.47;73.22
64111;DHT22;50401;48.188;11.566;2023-04-25T04:21:28;8.59;73.20
64111;DHT22;50401;48.188;11.566;2023-04-25T04:23:54;8.59;73.22
64111;DHT22;50401;48.188;11.566;2023-04-25T04:26:20;8.71;73.19
64111;DHT22;50401;48.188;11.566;2023-04-25T04:28:49;8.78;73.05
64111;DHT22;50401;48.188;11.566;2023-04-25T04:31:16;8.75;72.92
64111;DHT22;50401;48.188;11.566;2023-04-25T04:33:41;8.74;72.46
64111;DHT22;50401;48.188;11.566;2023-04-25T04:36:07;8.77;72.54
64111;DHT22;50401;48.188;11.566;2023-04-25T04:38:32;8.78;72.41
64111;DHT22;50401;48.188;11.566;2023-04-25T04:40:58;8.88;72.28
64111;DHT22;50401;48.188;11.566;2023-04-25T04:43:23;8.98;72.07
64111;DHT22;50401;48.188;11.566;2023-04-25T04:45:49;9.06;71.81
64111;DHT22;50401;48.188;11.566;2023-04-25T04:48:15;9.16;71.49
64111;DHT22;50401;48.188;11.566;2023-04-25T04:50:43;9.01;71.73
64111;DHT22;50401;48.188;11.566;2023-04-25T04:53:10;9.01;72.00
64111;DHT22;50401;48.188;11.566;2023-04-25T04:55:35;8.98;72.01
64111;DHT22;50401;48.188;11.566;2023-04-25T04:58:01;9.05;72.05
64111;DHT22;50401;48.188;11.566;2023-04-25T05:00:26;9.11;72.16
64111;DHT22;50401;48.188;11.566;2023-04-25T05:02:52;9.09;72.36
64111;DHT22;50401;48.188;11.566;2023-04-25T05:05:17;8.77;72.80
64111;DHT22;50401;48.188;11.566;2023-04-25T05:07:43;8.80;73.41
64111;DHT22;50401;48.188;11.566;2023-04-25T05:10:08;8.75;74.01
64111;DHT22;50401;48.188;11.566;2023-04-25T05:12:33;8.81;74.28
64111;DHT22;50401;48.188;11.566;2023-04-25T05:14:59;8.91;74.78
64111;DHT22;50401;48.188;11.566;2023-04-25T05:17:25;8.91;74.46
64111;DHT22;50401;48.188;11.566;2023-04-25T05:19:51;8.98;74.19
64111;DHT22;50401;48.188;11.566;2023-04-25T05:22:16;9.05;74.19
64111;DHT22;50401;48.188;11.566;2023-04-25T05:24:41;9.01;73.95
64111;DHT22;50401;48.188;11.566;2023-04-25T05:27:07;9.06;73.63
64111;DHT22;50401;48.188;11.566;2023-04-25T05:29:33;9.11;73.89
64111;DHT22;50401;48.188;11.566;2023-04-25T05:31:58;9.11;73.77
64111;DHT22;50401;48.188;11.566;2023-04-25T05:34:24;9.11;74.28
64111;DHT22;50401;48.188;11.566;2023-04-25T05:36:49;9.18;74.34
64111;DHT22;50401;48.188;11.566;2023-04-25T05:39:18;9.19;74.53
64111;DHT22;50401;48.188;11.566;2023-04-25T05:41:43;9.13;74.96
64111;DHT22;50401;48.188;11.566;2023-04-25T05:44:09;9.08;74.76
64111;DHT22;50401;48.188;11.566;2023-04-25T05:46:35;8.97;75.24
64111;DHT22;50401;48.188;11.566;2023-04-25T05:49:00;8.87;75.24
64111;DHT22;50401;48.188;11.566;2023-04-25T05:51:26;8.97;75.49
64111;DHT22;50401;48.188;11.566;2023-04-25T05:53:52;9.02;75.66
64111;DHT22;50401;48.188;11.566;2023-04-25T05:56:18;9.15;75.36
64111;DHT22;50401;48.188;11.566;2023-04-25T05:58:43;9.22;75.09
64111;DHT22;50401;48.188;11.566;2023-04-25T06:01:09;9.20;74.77
64111;DHT22;50401;48.188;11.566;2023-04-25T06:03:35;9.20;74.85
64111;DHT22;50401;48.188;11.566;2023-04-25T06:06:00;8.91;74.88
64111;DHT22;50401;48.188;11.566;2023-04-25T06:08:26;8.74;75.52
64111;DHT22;50401;48.188;11.566;2023-04-25T06:10:52;8.88;75.74
64111;DHT22;50401;48.188;11.566;2023-04-25T06:13:18;8.85;75.41
64111;DHT22;50401;48.188;11.566;2023-04-25T06:15:44;8.87;75.74
64111;DHT22;50401;48.188;11.566;2023-04-25T06:18:09;8.97;76.15
64111;DHT22;50401;48.188;11.566;2023-04-25T06:20:35;8.92;76.22
64111;DHT22;50401;48.188;11.566;2023-04-25T06:23:01;8.80;76.63
64111;DHT22;50401;48.188;11.566;2023-04-25T06:25:27;8.68;76.56
64111;DHT22;50401;48.188;11.566;2023-04-25T06:27:53;8.64;75.69
64111;DHT22;50401;48.188;11.566;2023-04-25T06:30:18;8.77;76.13
64111;DHT22;50401;48.188;11.566;2023-04-25T06:32:47;8.88;76.44
64111;DHT22;50401;48.188;11.566;2023-04-25T06:35:13;9.09;76.64
64111;DHT22;50401;48.188;11.566;2023-04-25T06:37:38;9.16;76.62
64111;DHT22;50401;48.188;11.566;2023-04-25T06:40:04;9.04;76.54
64111;DHT22;50401;48.188;11.566;2023-04-25T06:42:30;9.18;76.55
64111;DHT22;50401;48.188;11.566;2023-04-25T06:44:56;9.44;76.27
64111;DHT22;50401;48.188;11.566;2023-04-25T06:47:21;9.91;74.79
64111;DHT22;50401;48.188;11.566;2023-04-25T06:49:46;10.69;73.49
64111;DHT22;50401;48.188;11.566;2023-04-25T06:52:12;11.31;72.67
64111;DHT22;50401;48.188;11.566;2023-04-25T06:54:37;11.72;71.52
64111;DHT22;50401;48.188;11.566;2023-04-25T06:57:03;12.57;69.63
64111;DHT22;50401;48.188;11.566;2023-04-25T06:59:29;13.01;67.45
64111;DHT22;50401;48.188;11.566;2023-04-25T07:01:54;12.79;67.41
64111;DHT22;50401;48.188;11.566;2023-04-25T07:04:20;12.38;67.92
64111;DHT22;50401;48.188;11.566;2023-04-25T07:06:45;11.98;69.30
64111;DHT22;50401;48.188;11.566;2023-04-25T07:09:12;11.61;69.70
64111;DHT22;50401;48.188;11.566;2023-04-25T07:11:38;11.50;69.53
64111;DHT22;50401;48.188;11.566;2023-04-25T07:14:04;11.34;70.70
64111;DHT22;50401;48.188;11.566;2023-04-25T07:16:29;11.04;70.94
64111;DHT22;50401;48.188;11.566;2023-04-25T07:18:55;10.76;71.83
64111;DHT22;50401;48.188;11.566;2023-04-25T07:21:20;10.62;72.38
64111;DHT22;50401;48.188;11.566;2023-04-25T07:23:46;10.44;73.21
64111;DHT22;50401;48.188;11.566;2023-04-25T07:26:12;10.44;73.73
64111;DHT22;50401;48.188;11.566;2023-04-25T07:28:37;10.47;73.66
64111;DHT22;50401;48.188;11.566;2023-04-25T07:31:03;10.68;73.68
64111;DHT22;50401;48.188;11.566;2023-04-25T07:33:29;10.95;73.01
64111;DHT22;50401;48.188;11.566;2023-04-25T07:35:55;11.26;71.92
64111;DHT22;50401;48.188;11.566;2023-04-25T07:38:21;11.58;71.25
64111;DHT22;50401;48.188;11.566;2023-04-25T07:40:50;11.91;69.35
64111;DHT22;50401;48.188;11.566;2023-04-25T07:43:15;12.60;67.59
64111;DHT22;50401;48.188;11.566;2023-04-25T07:45:46;13.06;66.43
64111;DHT22;50401;48.188;11.566;2023-04-25T07:48:17;13.56;64.72
64111;DHT22;50401;48.188;11.566;2023-04-25T07:50:43;14.05;63.56
64111;DHT22;50401;48.188;11.566;2023-04-25T07:53:09;15.05;60.73
64111;DHT22;50401;48.188;11.566;2023-04-25T07:55:38;17.13;55.31
64111;DHT22;50401;48.188;11.566;2023-04-25T07:58:06;19.74;47.81
64111;DHT22;50401;48.188;11.566;2023-04-25T08:00:31;21.91;44.51
64111;DHT22;50401;48.188;11.566;2023-04-25T08:02:57;23.26;41.03
64111;DHT22;50401;48.188;11.566;2023-04-25T08:05:23;24.36;38.97
64111;DHT22;50401;48.188;11.566;2023-04-25T08:07:48;24.16;38.60
64111;DHT22;50401;48.188;11.566;2023-04-25T08:10:14;24.67;37.67
64111;DHT22;50401;48.188;11.566;2023-04-25T08:12:40;24.98;36.45
64111;DHT22;50401;48.188;11.566;2023-04-25T08:15:06;22.99;39.94
64111;DHT22;50401;48.188;11.566;2023-04-25T08:17:32;21.47;41.43
64111;DHT22;50401;48.188;11.566;2023-04-25T08:19:57;19.30;45.74
64111;DHT22;50401;48.188;11.566;2023-04-25T08:22:23;18.59;47.81
64111;DHT22;50401;48.188;11.566;2023-04-25T08:24:48;18.38;48.15
64111;DHT22;50401;48.188;11.566;2023-04-25T08:27:14;17.31;50.70
64111;DHT22;50401;48.188;11.566;2023-04-25T08:29:41;16.60;51.88
64111;DHT22;50401;48.188;11.566;2023-04-25T08:32:07;15.58;54.02
64111;DHT22;50401;48.188;11.566;2023-04-25T08:34:32;14.84;57.55
64111;DHT22;50401;48.188;11.566;2023-04-25T08:36:58;14.45;57.42
64111;DHT22;50401;48.188;11.566;2023-04-25T08:39:23;14.91;56.94
64111;DHT22;50401;48.188;11.566;2023-04-25T08:41:50;16.64;51.30
64111;DHT22;50401;48.188;11.566;2023-04-25T08:44:16;17.90;47.99
64111;DHT22;50401;48.188;11.566;2023-04-25T08:46:42;18.26;46.55
64111;DHT22;50401;48.188;11.566;2023-04-25T08:49:08;19.07;44.25
64111;DHT22;50401;48.188;11.566;2023-04-25T08:51:44;19.59;43.71
64111;DHT22;50401;48.188;11.566;2023-04-25T08:54:12;19.15;44.20
64111;DHT22;50401;48.188;11.566;2023-04-25T08:56:41;17.83;46.30
64111;DHT22;50401;48.188;11.566;2023-04-25T08:59:09;16.93;47.63
64111;DHT22;50401;48.188;11.566;2023-04-25T09:01:35;15.85;49.64
64111;DHT22;50401;48.188;11.566;2023-04-25T09:04:01;16.36;48.02
64111;DHT22;50401;48.188;11.566;2023-04-25T09:06:28;16.27;48.10
64111;DHT22;50401;48.188;11.566;2023-04-25T09:09:04;15.35;51.11
64111;DHT22;50401;48.188;11.566;2023-04-25T09:11:31;15.13;50.92
64111;DHT22;50401;48.188;11.566;2023-04-25T09:14:15;14.83;51.37
64111;DHT22;50401;48.188;11.566;2023-04-25T09:19:29;13.71;54.28
64111;DHT22;50401;48.188;11.566;2023-04-25T09:21:57;14.10;53.89
64111;DHT22;50401;48.188;11.566;2023-04-25T09:26:58;16.81;46.61
64111;DHT22;50401;48.188;11.566;2023-04-25T09:29:40;17.10;46.27
64111;DHT22;50401;48.188;11.566;2023-04-25T09:32:24;17.55;45.48
64111;DHT22;50401;48.188;11.566;2023-04-25T09:34:52;18.06;45.06
64111;DHT22;50401;48.188;11.566;2023-04-25T09:37:22;17.85;44.35
64111;DHT22;50401;48.188;11.566;2023-04-25T09:39:50;17.95;43.70
64111;DHT22;50401;48.188;11.566;2023-04-25T09:42:16;17.22;44.28
64111;DHT22;50401;48.188;11.566;2023-04-25T09:44:46;16.22;46.72
64111;DHT22;50401;48.188;11.566;2023-04-25T09:47:13;15.30;48.68
64111;DHT22;50401;48.188;11.566;2023-04-25T09:49:41;15.22;48.84
64111;DHT22;50401;48.188;11.566;2023-04-25T09:52:07;16.08;47.11
64111;DHT22;50401;48.188;11.566;2023-04-25T09:54:33;16.85;45.50
64111;DHT22;50401;48.188;11.566;2023-04-25T09:57:06;17.35;45.75
64111;DHT22;50401;48.188;11.566;2023-04-25T09:59:38;16.82;46.28
64111;DHT22;50401;48.188;11.566;2023-04-25T10:02:05;16.44;46.22
64111;DHT22;50401;48.188;11.566;2023-04-25T10:04:34;15.99;47.36
64111;DHT22;50401;48.188;11.566;2023-04-25T10:07:00;15.88;47.28
64111;DHT22;50401;48.188;11.566;2023-04-25T10:09:28;15.77;47.99
64111;DHT22;50401;48.188;11.566;2023-04-25T10:11:59;15.51;48.05
64111;DHT22;50401;48.188;11.566;2023-04-25T10:14:26;15.35;49.72
64111;DHT22;50401;48.188;11.566;2023-04-25T10:16:52;15.65;49.41
64111;DHT22;50401;48.188;11.566;2023-04-25T10:19:19;15.70;48.56
64111;DHT22;50401;48.188;11.566;2023-04-25T10:21:55;15.71;48.27
64111;DHT22;50401;48.188;11.566;2023-04-25T10:24:22;15.51;48.52
64111;DHT22;50401;48.188;11.566;2023-04-25T10:26:49;15.36;49.56
64111;DHT22;50401;48.188;11.566;2023-04-25T10:29:25;14.96;49.11
64111;DHT22;50401;48.188;11.566;2023-04-25T10:31:51;14.81;50.03
64111;DHT22;50401;48.188;11.566;2023-04-25T10:34:17;14.76;50.55
64111;DHT22;50401;48.188;11.566;2023-04-25T10:36:51;14.67;50.72
64111;DHT22;50401;48.188;11.566;2023-04-25T10:39:25;14.42;51.44
64111;DHT22;50401;48.188;11.566;2023-04-25T10:42:02;14.18;52.62
64111;DHT22;50401;48.188;11.566;2023-04-25T10:44:31;13.87;54.66
64111;DHT22;50401;48.188;11.566;2023-04-25T10:46:59;13.48;56.80
64111;DHT22;50401;48.188;11.566;2023-04-25T10:49:30;12.97;57.08
64111;DHT22;50401;48.188;11.566;2023-04-25T10:52:18;12.63;60.27
64111;DHT22;50401;48.188;11.566;2023-04-25T10:54:54;12.72;62.38
64111;DHT22;50401;48.188;11.566;2023-04-25T11:00:10;12.34;66.69
64111;DHT22;50401;48.188;11.566;2023-04-25T11:02:48;12.49;66.72
64111;DHT22;50401;48.188;11.566;2023-04-25T11:05:36;12.31;67.96
64111;DHT22;50401;48.188;11.566;2023-04-25T11:08:02;12.04;69.18
64111;DHT22;50401;48.188;11.566;2023-04-25T11:10:30;12.12;67.86
64111;DHT22;50401;48.188;11.566;2023-04-25T11:12:57;12.17;69.03
64111;DHT22;50401;48.188;11.566;2023-04-25T11:15:23;12.07;69.58
64111;DHT22;50401;48.188;11.566;2023-04-25T11:17:51;12.06;69.56
64111;DHT22;50401;48.188;11.566;2023-04-25T11:20:16;12.17;70.37
64111;DHT22;50401;48.188;11.566;2023-04-25T11:22:44;12.25;71.40
64111;DHT22;50401;48.188;11.566;2023-04-25T11:25:11;12.41;69.59
64111;DHT22;50401;48.188;11.566;2023-04-25T11:27:59;12.42;68.30
64111;DHT22;50401;48.188;11.566;2023-04-25T11:30:25;12.53;67.99
64111;DHT22;50401;48.188;11.566;2023-04-25T11:32:53;12.66;67.62
64111;DHT22;50401;48.188;11.566;2023-04-25T11:35:19;12.39;68.65
64111;DHT22;50401;48.188;11.566;2023-04-25T11:37:48;12.59;68.41
64111;DHT22;50401;48.188;11.566;2023-04-25T11:40:13;12.39;67.77
64111;DHT22;50401;48.188;11.566;2023-04-25T11:42:43;12.76;67.28
64111;DHT22;50401;48.188;11.566;2023-04-25T11:45:09;13.07;66.34
64111;DHT22;50401;48.188;11.566;2023-04-25T11:47:35;13.11;65.35
64111;DHT22;50401;48.188;11.566;2023-04-25T11:50:02;13.08;66.40
64111;DHT22;50401;48.188;11.566;2023-04-25T11:52:38;13.12;65.51
64111;DHT22;50401;48.188;11.566;2023-04-25T11:55:22;12.94;67.34
64111;DHT22;50401;48.188;11.566;2023-04-25T11:57:48;12.93;67.77
64111;DHT22;50401;48.188;11.566;2023-04-25T12:00:17;12.62;67.27
64111;DHT22;50401;48.188;11.566;2023-04-25T12:02:44;12.42;69.09
64111;DHT22;50401;48.188;11.566;2023-04-25T12:05:11;12.16;70.08
64111;DHT22;50401;48.188;11.566;2023-04-25T12:07:37;11.86;70.89
64111;DHT22;50401;48.188;11.566;2023-04-25T12:10:10;11.68;71.99
64111;DHT22;50401;48.188;11.566;2023-04-25T12:12:36;11.42;73.53
64111;DHT22;50401;48.188;11.566;2023-04-25T12:15:24;11.19;73.22
64111;DHT22;50401;48.188;11.566;2023-04-25T12:17:51;10.80;73.87
64111;DHT22;50401;48.188;11.566;2023-04-25T12:20:19;10.92;73.40
64111;DHT22;50401;48.188;11.566;2023-04-25T12:22:51;11.03;73.57
64111;DHT22;50401;48.188;11.566;2023-04-25T12:25:36;11.10;73.68
64111;DHT22;50401;48.188;11.566;2023-04-25T12:28:12;11.16;73.07
64111;DHT22;50401;48.188;11.566;2023-04-25T12:33:24;11.28;72.34
64111;DHT22;50401;48.188;11.566;2023-04-25T12:35:50;11.19;72.26
64111;DHT22;50401;48.188;11.566;2023-04-25T12:38:26;11.16;72.60
64111;DHT22;50401;48.188;11.566;2023-04-25T12:40:52;11.16;72.19
64111;DHT22;50401;48.188;11.566;2023-04-25T12:43:18;11.23;72.76
64111;DHT22;50401;48.188;11.566;2023-04-25T12:45:44;11.39;73.26
64111;DHT22;50401;48.188;11.566;2023-04-25T12:48:10;11.51;73.55
64111;DHT22;50401;48.188;11.566;2023-04-25T12:50:36;11.61;72.94
64111;DHT22;50401;48.188;11.566;2023-04-25T12:53:01;11.62;72.86
64111;DHT22;50401;48.188;11.566;2023-04-25T12:55:26;11.57;72.62
64111;DHT22;50401;48.188;11.566;2023-04-25T12:57:52;11.52;73.09
64111;DHT22;50401;48.188;11.566;2023-04-25T13:00:17;11.45;73.46
64111;DHT22;50401;48.188;11.566;2023-04-25T13:02:45;11.21;73.62
64111;DHT22;50401;48.188;11.566;2023-04-25T13:05:12;11.20;73.66
64111;DHT22;50401;48.188;11.566;2023-04-25T13:07:37;10.65;74.12
64111;DHT22;50401;48.188;11.566;2023-04-25T13:10:03;10.86;73.56
64111;DHT22;50401;48.188;11.566;2023-04-25T13:12:28;11.06;73.84
64111;DHT22;50401;48.188;11.566;2023-04-25T13:14:54;11.13;73.81
64111;DHT22;50401;48.188;11.566;2023-04-25T13:17:19;11.23;74.19
64111;DHT22;50401;48.188;11.566;2023-04-25T13:19:44;11.17;73.99
64111;DHT22;50401;48.188;11.566;2023-04-25T13:22:10;11.09;73.32
64111;DHT22;50401;48.188;11.566;2023-04-25T13:24:36;10.71;74.39
64111;DHT22;50401;48.188;11.566;2023-04-25T13:27:01;10.64;74.60
64111;DHT22;50401;48.188;11.566;2023-04-25T13:29:26;10.78;74.01
64111;DHT22;50401;48.188;11.566;2023-04-25T13:31:52;10.76;73.98
64111;DHT22;50401;48.188;11.566;2023-04-25T13:34:17;10.85;73.95
64111;DHT22;50401;48.188;11.566;2023-04-25T13:36:43;10.88;74.36
64111;DHT22;50401;48.188;11.566;2023-04-25T13:39:08;10.75;73.88
64111;DHT22;50401;48.188;11.566;2023-04-25T13:41:33;10.72;73.21
64111;DHT22;50401;48.188;11.566;2023-04-25T13:43:59;10.69;73.94
64111;DHT22;50401;48.188;11.566;2023-04-25T13:46:26;10.61;73.72
64111;DHT22;50401;48.188;11.566;2023-04-25T13:48:52;10.60;73.97
64111;DHT22;50401;48.188;11.566;2023-04-25T13:51:17;10.36;74.50
64111;DHT22;50401;48.188;11.566;2023-04-25T13:53:43;10.27;74.94
64111;DHT22;50401;48.188;11.566;2023-04-25T13:56:09;10.26;74.84
64111;DHT22;50401;48.188;11.566;2023-04-25T13:58:36;10.38;76.15
64111;DHT22;50401;48.188;11.566;2023-04-25T14:01:07;10.26;76.40
64111;DHT22;50401;48.188;11.566;2023-04-25T14:03:35;10.33;76.19
64111;DHT22;50401;48.188;11.566;2023-04-25T14:06:01;10.29;76.52
64111;DHT22;50401;48.188;11.566;2023-04-25T14:08:28;10.37;76.45
64111;DHT22;50401;48.188;11.566;2023-04-25T14:10:54;10.24;77.01
64111;DHT22;50401;48.188;11.566;2023-04-25T14:13:19;10.14;77.57
64111;DHT22;50401;48.188;11.566;2023-04-25T14:15:44;10.43;77.17
64111;DHT22;50401;48.188;11.566;2023-04-25T14:18:10;9.86;77.47
64111;DHT22;50401;48.188;11.566;2023-04-25T14:20:35;10.16;77.54
64111;DHT22;50401;48.188;11.566;2023-04-25T14:23:00;10.41;77.21
64111;DHT22;50401;48.188;11.566;2023-04-25T14:25:27;10.38;78.04
64111;DHT22;50401;48.188;11.566;2023-04-25T14:27:52;10.72;77.54
64111;DHT22;50401;48.188;11.566;2023-04-25T14:30:19;10.91;77.45
64111;DHT22;50401;48.188;11.566;2023-04-25T14:32:45;11.07;77.03
64111;DHT22;50401;48.188;11.566;2023-04-25T14:35:11;11.11;76.03
64111;DHT22;50401;48.188;11.566;2023-04-25T14:37:37;11.19;75.68
64111;DHT22;50401;48.188;11.566;2023-04-25T14:40:02;11.24;75.38
64111;DHT22;50401;48.188;11.566;2023-04-25T14:42:28;11.34;75.34
64111;DHT22;50401;48.188;11.566;2023-04-25T14:44:53;11.44;75.15
64111;DHT22;50401;48.188;11.566;2023-04-25T14:47:19;11.37;74.49
64111;DHT22;50401;48.188;11.566;2023-04-25T14:49:45;11.41;74.18
64111;DHT22;50401;48.188;11.566;2023-04-25T14:52:16;11.26;74.17
64111;DHT22;50401;48.188;11.566;2023-04-25T14:54:41;11.38;74.97
64111;DHT22;50401;48.188;11.566;2023-04-25T14:57:07;11.45;75.22
64111;DHT22;50401;48.188;11.566;2023-04-25T14:59:32;11.54;74.58
64111;DHT22;50401;48.188;11.566;2023-04-25T15:01:58;11.55;73.78
64111;DHT22;50401;48.188;11.566;2023-04-25T15:04:23;11.61;73.53
64111;DHT22;50401;48.188;11.566;2023-04-25T15:06:49;11.59;73.73
64111;DHT22;50401;48.188;11.566;2023-04-25T15:09:15;11.27;74.41
64111;DHT22;50401;48.188;11.566;2023-04-25T15:11:41;11.14;74.97
64111;DHT22;50401;48.188;11.566;2023-04-25T15:14:07;11.17;75.00
64111;DHT22;50401;48.188;11.566;2023-04-25T15:16:33;10.91;75.40
64111;DHT22;50401;48.188;11.566;2023-04-25T15:18:58;11.19;74.37
64111;DHT22;50401;48.188;11.566;2023-04-25T15:21:23;11.00;74.33
64111;DHT22;50401;48.188;11.566;2023-04-25T15:23:49;10.96;74.75
64111;DHT22;50401;48.188;11.566;2023-04-25T15:26:15;10.58;74.94
64111;DHT22;50401;48.188;11.566;2023-04-25T15:28:41;10.79;75.05
64111;DHT22;50401;48.188;11.566;2023-04-25T15:31:06;10.93;74.35